sensor_id;sensor_type;location;lat;lon;timestamp;temperature;humidity
14401;DHT22;7285;50.894;5.462;2023-06-19T00:01:29;20.70;1.00
14401;DHT22;7285;50.894;5.462;2023-06-19T00:03:56;20.70;1.00
14401;DHT22;7285;50.894;5.462;2023-06-19T00:06:23;20.70;1.00
14401;DHT22;7285;50.894;5.462;2023-06-19T00:08:50;20.70;1.00
14401;DHT22;7285;50.894;5.462;2023-06-19T00:11:18;20.70;1.00
14401;DHT22;7285;50.894;5.462;2023-06-19T00:13:46;20.70;1.00
14401;DHT22;7285;50.894;5.462;2023-06-19T00:16:12;20.70;1.00
14401;DHT22;7285;50.894;5.462;2023-06-19T00:18:39;20.60;1.00
14401;DHT22;7285;50.894;5.462;2023-06-19T00:21:07;20.60;1.00
14401;DHT22;7285;50.894;5.462;2023-06-19T00:23:34;20.70;1.00
14401;DHT22;7285;50.894;5.462;2023-06-19T00:26:01;20.70;1.00
14401;DHT22;7285;50.894;5.462;2023-06-19T00:28:30;20.70;1.00
14401;DHT22;7285;50.894;5.462;2023-06-19T00:30:58;20.70;1.00
14401;DHT22;7285;50.894;5.462;2023-06-19T00:33:26;20.70;1.00
14401;DHT22;7285;50.894;5.462;2023-06-19T00:35:54;20.60;1.00
14401;DHT22;7285;50.894;5.462;2023-06-19T00:38:21;20.60;1.00
14401;DHT22;7285;50.894;5.462;2023-06-19T00:40:49;20.60;1.00
14401;DHT22;7285;50.894;5.462;2023-06-19T00:43:16;20.60;1.00
14401;DHT22;7285;50.894;5.462;2023-06-19T00:45:45;20.50;1.00
14401;DHT22;7285;50.894;5.462;2023-06-19T00:48:12;20.50;1.00
14401;DHT22;7285;50.894;5.462;2023-06-19T00:50:39;20.40;1.00
14401;DHT22;7285;50.894;5.462;2023-06-19T00:53:06;20.40;1.00
14401;DHT22;7285;50.894;5.462;2023-06-19T00:55:34;20.40;1.00
14401;DHT22;7285;50.894;5.462;2023-06-19T00:58:01;20.30;1.00
14401;DHT22;7285;50.894;5.462;2023-06-19T01:00:28;20.30;1.00
14401;DHT22;7285;50.894;5.462;2023-06-19T01:02:56;20.20;1.00
14401;DHT22;7285;50.894;5.462;2023-06-19T01:05:24;20.20;12.50
14401;DHT22;7285;50.894;5.462;2023-06-19T01:07:59;20.10;77.70
14401;DHT22;7285;50.894;5.462;2023-06-19T01:10:28;20.10;99.90
14401;DHT22;7285;50.894;5.462;2023-06-19T01:13:00;20.00;99.90
14401;DHT22;7285;50.894;5.462;2023-06-19T01:15:29;20.00;99.90
14401;DHT22;7285;50.894;5.462;2023-06-19T01:17:58;19.90;99.90
14401;DHT22;7285;50.894;5.462;2023-06-19T01:20:27;19.90;99.90
14401;DHT22;7285;50.894;5.462;2023-06-19T01:22:56;19.90;99.90
14401;DHT22;7285;50.894;5.462;2023-06-19T01:25:23;19.80;99.90
14401;DHT22;7285;50.894;5.462;2023-06-19T01:27:50;19.80;99.90
14401;DHT22;7285;50.894;5.462;2023-06-19T01:30:18;19.80;1.00
14401;DHT22;7285;50.894;5.462;2023-06-19T01:32:50;19.80;1.00
14401;DHT22;7285;50.894;5.462;2023-06-19T01:35:25;19.80;1.00
14401;DHT22;7285;50.894;5.462;2023-06-19T01:37:55;19.80;1.00
14401;DHT22;7285;50.894;5.462;2023-06-19T01:40:23;19.70;1.00
14401;DHT22;7285;50.894;5.462;2023-06-19T01:42:52;19.70;1.00
14401;DHT22;7285;50.894;5.462;2023-06-19T01:45:20;19.60;1.00
14401;DHT22;7285;50.894;5.462;2023-06-19T01:47:47;19.60;1.00
14401;DHT22;7285;50.894;5.462;2023-06-19T01:50:14;19.60;1.00
14401;DHT22;7285;50.894;5.462;2023-06-19T01:52:42;19.60;1.00
14401;DHT22;7285;50.894;5.462;2023-06-19T01:55:10;19.60;1.00
14401;DHT22;7285;50.894;5.462;2023-06-19T01:57:37;19.60;1.00
14401;DHT22;7285;50.894;5.462;2023-06-19T02:00:05;19.60;1.00
14401;DHT22;7285;50.894;5.462;2023-06-19T02:02:33;19.60;1.00
14401;DHT22;7285;50.894;5.462;2023-06-19T02:05:00;19.70;1.00
14401;DHT22;7285;50.894;5.462;2023-06-19T02:07:27;19.70;1.00
14401;DHT22;7285;50.894;5.462;2023-06-19T02:09:54;19.70;1.00
14401;DHT22;7285;50.894;5.462;2023-06-19T02:12:22;19.70;1.00
14401;DHT22;7285;50.894;5.462;2023-06-19T02:14:50;19.70;32.90
14401;DHT22;7285;50.894;5.462;2023-06-19T02:17:17;19.70;96.70
14401;DHT22;7285;50.894;5.462;2023-06-19T02:19:44;19.70;99.90
14401;DHT22;7285;50.894;5.462;2023-06-19T02:22:11;19.70;99.90
14401;DHT22;7285;50.894;5.462;2023-06-19T02:24:41;19.70;99.90
14401;DHT22;7285;50.894;5.462;2023-06-19T02:27:10;19.70;99.90
14401;DHT22;7285;50.894;5.462;2023-06-19T02:29:38;19.60;99.90
14401;DHT22;7285;50.894;5.462;2023-06-19T02:32:05;19.50;1.00
14401;DHT22;7285;50.894;5.462;2023-06-19T02:34:32;19.50;1.00
14401;DHT22;7285;50.894;5.462;2023-06-19T02:37:00;19.40;1.00
14401;DHT22;7285;50.894;5.462;2023-06-19T02:39:29;19.40;1.00
14401;DHT22;7285;50.894;5.462;2023-06-19T02:41:56;19.30;1.00
14401;DHT22;7285;50.894;5.462;2023-06-19T02:44:23;19.20;1.00
14401;DHT22;7285;50.894;5.462;2023-06-19T02:46:51;19.20;66.40
14401;DHT22;7285;50.894;5.462;2023-06-19T02:49:18;19.10;99.90
14401;DHT22;7285;50.894;5.462;2023-06-19T02:51:45;19.10;99.90
14401;DHT22;7285;50.894;5.462;2023-06-19T02:54:12;19.10;99.90
14401;DHT22;7285;50.894;5.462;2023-06-19T02:56:39;19.00;99.90
14401;DHT22;7285;50.894;5.462;2023-06-19T02:59:06;19.00;1.00
14401;DHT22;7285;50.894;5.462;2023-06-19T03:01:33;19.00;1.00
14401;DHT22;7285;50.894;5.462;2023-06-19T03:04:02;18.90;1.00
14401;DHT22;7285;50.894;5.462;2023-06-19T03:06:28;18.80;1.00
14401;DHT22;7285;50.894;5.462;2023-06-19T03:08:56;18.80;14.00
14401;DHT22;7285;50.894;5.462;2023-06-19T03:11:24;18.80;99.90
14401;DHT22;7285;50.894;5.462;2023-06-19T03:13:52;18.70;99.90
14401;DHT22;7285;50.894;5.462;2023-06-19T03:16:20;18.70;99.90
14401;DHT22;7285;50.894;5.462;2023-06-19T03:18:47;18.60;1.00
14401;DHT22;7285;50.894;5.462;2023-06-19T03:21:16;18.60;1.00
14401;DHT22;7285;50.894;5.462;2023-06-19T03:23:44;18.60;1.00
14401;DHT22;7285;50.894;5.462;2023-06-19T03:26:11;18.50;1.00
14401;DHT22;7285;50.894;5.462;2023-06-19T03:28:38;18.50;14.60
14401;DHT22;7285;50.894;5.462;2023-06-19T03:31:06;18.40;98.80
14401;DHT22;7285;50.894;5.462;2023-06-19T03:33:34;18.50;99.90
14401;DHT22;7285;50.894;5.462;2023-06-19T03:36:01;18.40;99.90
14401;DHT22;7285;50.894;5.462;2023-06-19T03:38:30;18.40;1.00
14401;DHT22;7285;50.894;5.462;2023-06-19T03:40:57;18.40;1.00
14401;DHT22;7285;50.894;5.462;2023-06-19T03:43:24;18.40;1.00
14401;DHT22;7285;50.894;5.462;2023-06-19T03:45:51;18.40;1.00
14401;DHT22;7285;50.894;5.462;2023-06-19T03:48:24;18.40;1.00
14401;DHT22;7285;50.894;5.462;2023-06-19T03:50:51;18.40;1.00
14401;DHT22;7285;50.894;5.462;2023-06-19T03:53:26;18.50;1.00
14401;DHT22;7285;50.894;5.462;2023-06-19T03:55:57;18.50;1.00
14401;DHT22;7285;50.894;5.462;2023-06-19T03:58:30;18.60;1.00
14401;DHT22;7285;50.894;5.462;2023-06-19T04:00:57;18.60;1.00
14401;DHT22;7285;50.894;5.462;2023-06-19T04:03:24;18.70;1.00
14401;DHT22;7285;50.894;5.462;2023-06-19T04:05:51;18.70;1.00
14401;DHT22;7285;50.894;5.462;2023-06-19T04:08:18;18.80;1.00
14401;DHT22;7285;50.894;5.462;2023-06-19T04:10:45;18.80;1.00
14401;DHT22;7285;50.894;5.462;2023-06-19T04:13:13;18.80;1.00
14401;DHT22;7285;50.894;5.462;2023-06-19T04:15:41;18.90;1.00
14401;DHT22;7285;50.894;5.462;2023-06-19T04:18:11;18.90;1.00
14401;DHT22;7285;50.894;5.462;2023-06-19T04:20:38;18.90;1.00
14401;DHT22;7285;50.894;5.462;2023-06-19T04:23:05;18.90;1.00
14401;DHT22;7285;50.894;5.462;2023-06-19T04:25:32;19.00;1.00
14401;DHT22;7285;50.894;5.462;2023-06-19T04:27:59;19.00;99.90
14401;DHT22;7285;50.894;5.462;2023-06-19T04:30:30;19.00;1.00
14401;DHT22;7285;50.894;5.462;2023-06-19T04:33:06;19.00;1.00
14401;DHT22;7285;50.894;5.462;2023-06-19T04:35:34;19.00;1.00
14401;DHT22;7285;50.894;5.462;2023-06-19T04:38:16;19.10;99.90
14401;DHT22;7285;50.894;5.462;2023-06-19T04:40:43;19.10;99.90
14401;DHT22;7285;50.894;5.462;2023-06-19T04:43:10;19.10;1.00
14401;DHT22;7285;50.894;5.462;2023-06-19T04:45:39;19.20;99.90
14401;DHT22;7285;50.894;5.462;2023-06-19T04:48:06;19.20;99.90
14401;DHT22;7285;50.894;5.462;2023-06-19T04:50:35;19.30;99.90
14401;DHT22;7285;50.894;5.462;2023-06-19T04:53:02;19.30;1.00
14401;DHT22;7285;50.894;5.462;2023-06-19T04:55:29;19.20;1.00
14401;DHT22;7285;50.894;5.462;2023-06-19T04:57:56;19.10;1.00
14401;DHT22;7285;50.894;5.462;2023-06-19T05:00:23;19.00;1.00
14401;DHT22;7285;50.894;5.462;2023-06-19T05:02:53;19.00;1.00
14401;DHT22;7285;50.894;5.462;2023-06-19T05:05:25;18.90;1.00
14401;DHT22;7285;50.894;5.462;2023-06-19T05:07:52;18.80;99.90
14401;DHT22;7285;50.894;5.462;2023-06-19T05:10:19;18.80;1.00
14401;DHT22;7285;50.894;5.462;2023-06-19T05:12:46;18.80;1.00
14401;DHT22;7285;50.894;5.462;2023-06-19T05:15:13;18.80;1.00
14401;DHT22;7285;50.894;5.462;2023-06-19T05:17:40;18.70;99.90
14401;DHT22;7285;50.894;5.462;2023-06-19T05:20:09;18.70;1.00
14401;DHT22;7285;50.894;5.462;2023-06-19T05:22:37;18.70;1.00
14401;DHT22;7285;50.894;5.462;2023-06-19T05:25:05;18.70;24.60
14401;DHT22;7285;50.894;5.462;2023-06-19T05:27:32;18.80;99.90
14401;DHT22;7285;50.894;5.462;2023-06-19T05:30:00;18.80;2.20
14401;DHT22;7285;50.894;5.462;2023-06-19T05:32:27;18.80;1.00
14401;DHT22;7285;50.894;5.462;2023-06-19T05:34:54;18.70;99.90
14401;DHT22;7285;50.894;5.462;2023-06-19T05:37:22;18.70;1.00
14401;DHT22;7285;50.894;5.462;2023-06-19T05:39:49;18.70;99.90
14401;DHT22;7285;50.894;5.462;2023-06-19T05:42:16;18.70;1.00
14401;DHT22;7285;50.894;5.462;2023-06-19T05:44:43;18.80;1.00
14401;DHT22;7285;50.894;5.462;2023-06-19T05:47:10;18.80;99.90
14401;DHT22;7285;50.894;5.462;2023-06-19T05:49:37;18.80;1.00
14401;DHT22;7285;50.894;5.462;2023-06-19T05:52:07;18.90;99.90
14401;DHT22;7285;50.894;5.462;2023-06-19T05:54:36;19.00;1.00
14401;DHT22;7285;50.894;5.462;2023-06-19T05:57:03;19.00;99.90
14401;DHT22;7285;50.894;5.462;2023-06-19T05:59:30;19.10;99.90
14401;DHT22;7285;50.894;5.462;2023-06-19T06:01:57;19.30;99.90
14401;DHT22;7285;50.894;5.462;2023-06-19T06:04:23;19.40;99.90
14401;DHT22;7285;50.894;5.462;2023-06-19T06:06:50;19.50;99.90
14401;DHT22;7285;50.894;5.462;2023-06-19T06:09:17;19.70;1.00
14401;DHT22;7285;50.894;5.462;2023-06-19T06:11:46;19.60;99.90
14401;DHT22;7285;50.894;5.462;2023-06-19T06:14:14;19.60;1.00
14401;DHT22;7285;50.894;5.462;2023-06-19T06:16:41;19.70;1.00
14401;DHT22;7285;50.894;5.462;2023-06-19T06:19:07;19.90;99.90
14401;DHT22;7285;50.894;5.462;2023-06-19T06:21:34;20.10;1.00
14401;DHT22;7285;50.894;5.462;2023-06-19T06:24:01;20.10;99.90
14401;DHT22;7285;50.894;5.462;2023-06-19T06:26:28;19.90;15.40
14401;DHT22;7285;50.894;5.462;2023-06-19T06:28:57;19.90;99.90
14401;DHT22;7285;50.894;5.462;2023-06-19T06:31:24;19.90;99.90
14401;DHT22;7285;50.894;5.462;2023-06-19T06:33:51;20.10;99.90
14401;DHT22;7285;50.894;5.462;2023-06-19T06:36:17;20.20;39.00
14401;DHT22;7285;50.894;5.462;2023-06-19T06:38:44;20.40;1.00
14401;DHT22;7285;50.894;5.462;2023-06-19T06:41:11;20.50;99.90
14401;DHT22;7285;50.894;5.462;2023-06-19T06:43:40;20.50;82.70
14401;DHT22;7285;50.894;5.462;2023-06-19T06:46:10;20.40;99.90
14401;DHT22;7285;50.894;5.462;2023-06-19T06:48:37;20.40;99.90
14401;DHT22;7285;50.894;5.462;2023-06-19T06:51:03;20.60;99.90
14401;DHT22;7285;50.894;5.462;2023-06-19T06:53:30;20.60;1.00
14401;DHT22;7285;50.894;5.462;2023-06-19T06:55:58;20.80;1.00
14401;DHT22;7285;50.894;5.462;2023-06-19T06:58:26;20.80;1.00
14401;DHT22;7285;50.894;5.462;2023-06-19T07:00:53;21.00;1.00
14401;DHT22;7285;50.894;5.462;2023-06-19T07:03:21;21.20;1.00
14401;DHT22;7285;50.894;5.462;2023-06-19T07:05:48;21.30;99.90
14401;DHT22;7285;50.894;5.462;2023-06-19T07:08:15;21.40;91.90
14401;DHT22;7285;50.894;5.462;2023-06-19T07:10:42;21.60;1.00
14401;DHT22;7285;50.894;5.462;2023-06-19T07:13:09;21.70;1.00
14401;DHT22;7285;50.894;5.462;2023-06-19T07:15:36;21.90;1.00
14401;DHT22;7285;50.894;5.462;2023-06-19T07:18:03;22.10;1.00
14401;DHT22;7285;50.894;5.462;2023-06-19T07:20:31;22.10;1.00
14401;DHT22;7285;50.894;5.462;2023-06-19T07:22:58;22.10;99.90
14401;DHT22;7285;50.894;5.462;2023-06-19T07:25:25;22.30;1.00
14401;DHT22;7285;50.894;5.462;2023-06-19T07:27:52;22.20;99.90
14401;DHT22;7285;50.894;5.462;2023-06-19T07:30:20;22.30;99.90
14401;DHT22;7285;50.894;5.462;2023-06-19T07:32:46;22.40;99.90
14401;DHT22;7285;50.894;5.462;2023-06-19T07:35:13;22.40;99.90
14401;DHT22;7285;50.894;5.462;2023-06-19T07:37:42;22.50;99.90
14401;DHT22;7285;50.894;5.462;2023-06-19T07:40:10;22.70;99.90
14401;DHT22;7285;50.894;5.462;2023-06-19T07:42:37;22.90;99.90
14401;DHT22;7285;50.894;5.462;2023-06-19T07:45:05;22.80;8.80
14401;DHT22;7285;50.894;5.462;2023-06-19T07:47:32;22.50;1.00
14401;DHT22;7285;50.894;5.462;2023-06-19T07:49:59;22.40;1.00
14401;DHT22;7285;50.894;5.462;2023-06-19T07:52:26;22.10;24.20
14401;DHT22;7285;50.894;5.462;2023-06-19T07:54:55;22.20;58.80
14401;DHT22;7285;50.894;5.462;2023-06-19T07:57:24;22.10;99.90
14401;DHT22;7285;50.894;5.462;2023-06-19T07:59:54;22.10;99.90
14401;DHT22;7285;50.894;5.462;2023-06-19T08:02:21;22.20;78.60
14401;DHT22;7285;50.894;5.462;2023-06-19T08:04:48;22.40;45.70
14401;DHT22;7285;50.894;5.462;2023-06-19T08:07:15;22.40;13.50
14401;DHT22;7285;50.894;5.462;2023-06-19T08:09:41;22.40;1.00
14401;DHT22;7285;50.894;5.462;2023-06-19T08:12:10;22.50;1.00
14401;DHT22;7285;50.894;5.462;2023-06-19T08:14:37;22.70;1.00
14401;DHT22;7285;50.894;5.462;2023-06-19T08:17:04;23.00;1.00
14401;DHT22;7285;50.894;5.462;2023-06-19T08:19:31;23.00;1.00
14401;DHT22;7285;50.894;5.462;2023-06-19T08:21:58;23.00;1.00
14401;DHT22;7285;50.894;5.462;2023-06-19T08:24:25;22.80;1.00
14401;DHT22;7285;50.894;5.462;2023-06-19T08:26:52;22.60;1.00
14401;DHT22;7285;50.894;5.462;2023-06-19T08:29:21;22.80;1.00
14401;DHT22;7285;50.894;5.462;2023-06-19T08:31:48;23.10;1.00
14401;DHT22;7285;50.894;5.462;2023-06-19T08:34:15;23.20;1.00
14401;DHT22;7285;50.894;5.462;2023-06-19T08:36:42;23.10;1.00
14401;DHT22;7285;50.894;5.462;2023-06-19T08:39:09;23.20;1.00
14401;DHT22;7285;50.894;5.462;2023-06-19T08:41:36;23.20;1.00
14401;DHT22;7285;50.894;5.462;2023-06-19T08:44:04;23.00;1.00
14401;DHT22;7285;50.894;5.462;2023-06-19T08:46:32;22.90;1.00
14401;DHT22;7285;50.894;5.462;2023-06-19T08:49:00;22.90;1.00
14401;DHT22;7285;50.894;5.462;2023-06-19T08:51:27;22.90;1.00
14401;DHT22;7285;50.894;5.462;2023-06-19T08:53:56;23.20;1.00
14401;DHT22;7285;50.894;5.462;2023-06-19T08:56:23;23.40;1.00
14401;DHT22;7285;50.894;5.462;2023-06-19T08:58:50;23.30;1.00
14401;DHT22;7285;50.894;5.462;2023-06-19T09:01:18;23.50;1.00
14401;DHT22;7285;50.894;5.462;2023-06-19T09:03:47;23.70;1.00
14401;DHT22;7285;50.894;5.462;2023-06-19T09:06:18;23.80;1.00
14401;DHT22;7285;50.894;5.462;2023-06-19T09:08:45;23.90;1.00
14401;DHT22;7285;50.894;5.462;2023-06-19T09:11:12;24.00;1.00
14401;DHT22;7285;50.894;5.462;2023-06-19T09:13:38;24.30;1.00
14401;DHT22;7285;50.894;5.462;2023-06-19T09:16:07;24.00;1.00
14401;DHT22;7285;50.894;5.462;2023-06-19T09:18:43;24.30;1.00
14401;DHT22;7285;50.894;5.462;2023-06-19T09:21:17;24.60;1.00
14401;DHT22;7285;50.894;5.462;2023-06-19T09:23:44;24.40;1.00
14401;DHT22;7285;50.894;5.462;2023-06-19T09:26:14;24.40;1.00
14401;DHT22;7285;50.894;5.462;2023-06-19T09:28:41;24.40;1.00
14401;DHT22;7285;50.894;5.462;2023-06-19T09:31:09;24.70;1.00
14401;DHT22;7285;50.894;5.462;2023-06-19T09:33:36;24.70;1.00
14401;DHT22;7285;50.894;5.462;2023-06-19T09:36:05;24.80;1.00
14401;DHT22;7285;50.894;5.462;2023-06-19T09:38:35;25.10;1.00
14401;DHT22;7285;50.894;5.462;2023-06-19T09:41:05;24.80;1.00
14401;DHT22;7285;50.894;5.462;2023-06-19T09:43:35;24.80;1.00
14401;DHT22;7285;50.894;5.462;2023-06-19T09:46:04;25.20;1.00
14401;DHT22;7285;50.894;5.462;2023-06-19T09:48:32;25.40;1.00
14401;DHT22;7285;50.894;5.462;2023-06-19T09:51:05;25.40;1.00
14401;DHT22;7285;50.894;5.462;2023-06-19T09:53:34;25.70;1.00
14401;DHT22;7285;50.894;5.462;2023-06-19T09:56:01;25.80;1.00
14401;DHT22;7285;50.894;5.462;2023-06-19T09:58:29;25.90;99.90
14401;DHT22;7285;50.894;5.462;2023-06-19T10:00:57;26.00;99.90
14401;DHT22;7285;50.894;5.462;2023-06-19T10:03:31;26.50;99.90
14401;DHT22;7285;50.894;5.462;2023-06-19T10:05:59;26.60;99.90
14401;DHT22;7285;50.894;5.462;2023-06-19T10:08:28;26.10;99.90
14401;DHT22;7285;50.894;5.462;2023-06-19T10:10:57;26.10;99.90
14401;DHT22;7285;50.894;5.462;2023-06-19T10:13:32;26.60;99.90
14401;DHT22;7285;50.894;5.462;2023-06-19T10:16:00;26.50;99.90
14401;DHT22;7285;50.894;5.462;2023-06-19T10:18:27;26.50;99.90
14401;DHT22;7285;50.894;5.462;2023-06-19T10:20:55;26.30;99.90
14401;DHT22;7285;50.894;5.462;2023-06-19T10:23:23;26.30;99.90
14401;DHT22;7285;50.894;5.462;2023-06-19T10:25:57;26.20;99.90
14401;DHT22;7285;50.894;5.462;2023-06-19T10:28:25;26.40;99.90
14401;DHT22;7285;50.894;5.462;2023-06-19T10:30:54;25.90;99.90
14401;DHT22;7285;50.894;5.462;2023-06-19T10:33:21;25.80;99.90
14401;DHT22;7285;50.894;5.462;2023-06-19T10:35:48;25.80;99.90
14401;DHT22;7285;50.894;5.462;2023-06-19T10:38:16;26.50;99.90
14401;DHT22;7285;50.894;5.462;2023-06-19T10:40:43;26.80;99.90
14401;DHT22;7285;50.894;5.462;2023-06-19T10:43:19;26.80;99.90
14401;DHT22;7285;50.894;5.462;2023-06-19T10:45:46;26.90;99.90
14401;DHT22;7285;50.894;5.462;2023-06-19T10:48:18;26.70;99.90
14401;DHT22;7285;50.894;5.462;2023-06-19T10:50:45;26.80;99.90
14401;DHT22;7285;50.894;5.462;2023-06-19T10:53:23;26.70;99.90
14401;DHT22;7285;50.894;5.462;2023-06-19T10:55:55;26.70;99.90
14401;DHT22;7285;50.894;5.462;2023-06-19T10:58:24;26.50;99.90
14401;DHT22;7285;50.894;5.462;2023-06-19T11:00:51;26.60;99.90
14401;DHT22;7285;50.894;5.462;2023-06-19T11:03:19;26.20;99.90
14401;DHT22;7285;50.894;5.462;2023-06-19T11:05:47;26.60;99.90
14401;DHT22;7285;50.894;5.462;2023-06-19T11:08:17;26.50;99.90
14401;DHT22;7285;50.894;5.462;2023-06-19T11:10:45;26.50;99.90
14401;DHT22;7285;50.894;5.462;2023-06-19T11:13:14;26.60;99.90
14401;DHT22;7285;50.894;5.462;2023-06-19T11:15:42;26.70;99.90
14401;DHT22;7285;50.894;5.462;2023-06-19T11:18:10;27.10;99.90
14401;DHT22;7285;50.894;5.462;2023-06-19T11:20:43;27.00;99.90
14401;DHT22;7285;50.894;5.462;2023-06-19T11:23:12;27.30;99.90
14401;DHT22;7285;50.894;5.462;2023-06-19T11:25:41;28.00;99.90
14401;DHT22;7285;50.894;5.462;2023-06-19T11:28:11;28.00;99.90
14401;DHT22;7285;50.894;5.462;2023-06-19T11:30:39;28.00;99.90
14401;DHT22;7285;50.894;5.462;2023-06-19T11:33:17;27.90;99.90
14401;DHT22;7285;50.894;5.462;2023-06-19T11:35:48;27.80;99.90
14401;DHT22;7285;50.894;5.462;2023-06-19T11:38:17;27.80;99.90
14401;DHT22;7285;50.894;5.462;2023-06-19T11:40:44;27.60;99.90
14401;DHT22;7285;50.894;5.462;2023-06-19T11:43:12;27.80;99.90
14401;DHT22;7285;50.894;5.462;2023-06-19T11:45:50;27.90;99.90
14401;DHT22;7285;50.894;5.462;2023-06-19T11:48:23;28.10;99.90
14401;DHT22;7285;50.894;5.462;2023-06-19T11:50:50;28.20;99.90
14401;DHT22;7285;50.894;5.462;2023-06-19T11:53:18;28.30;99.90
14401;DHT22;7285;50.894;5.462;2023-06-19T11:55:45;28.40;99.90
14401;DHT22;7285;50.894;5.462;2023-06-19T11:58:12;28.50;99.90
14401;DHT22;7285;50.894;5.462;2023-06-19T12:00:40;28.70;99.90
14401;DHT22;7285;50.894;5.462;2023-06-19T12:03:08;28.80;99.90
14401;DHT22;7285;50.894;5.462;2023-06-19T12:05:37;28.80;99.90
14401;DHT22;7285;50.894;5.462;2023-06-19T12:08:04;29.00;99.90
14401;DHT22;7285;50.894;5.462;2023-06-19T12:10:32;28.80;99.90
14401;DHT22;7285;50.894;5.462;2023-06-19T12:12:59;28.80;99.90
14401;DHT22;7285;50.894;5.462;2023-06-19T12:15:26;29.00;99.90
14401;DHT22;7285;50.894;5.462;2023-06-19T12:17:53;29.20;99.90
14401;DHT22;7285;50.894;5.462;2023-06-19T12:20:23;29.10;99.90
14401;DHT22;7285;50.894;5.462;2023-06-19T12:22:52;28.80;99.90
14401;DHT22;7285;50.894;5.462;2023-06-19T12:25:19;29.30;99.90
14401;DHT22;7285;50.894;5.462;2023-06-19T12:27:46;28.90;99.90
14401;DHT22;7285;50.894;5.462;2023-06-19T12:30:15;29.00;99.90
14401;DHT22;7285;50.894;5.462;2023-06-19T12:32:42;29.50;99.90
14401;DHT22;7285;50.894;5.462;2023-06-19T12:35:09;29.80;99.90
14401;DHT22;7285;50.894;5.462;2023-06-19T12:37:36;29.80;99.90
14401;DHT22;7285;50.894;5.462;2023-06-19T12:40:05;30.00;99.90
14401;DHT22;7285;50.894;5.462;2023-06-19T12:42:36;30.50;99.90
14401;DHT22;7285;50.894;5.462;2023-06-19T12:45:03;30.50;99.90
14401;DHT22;7285;50.894;5.462;2023-06-19T12:47:30;30.40;99.90
14401;DHT22;7285;50.894;5.462;2023-06-19T12:49:57;30.90;99.90
14401;DHT22;7285;50.894;5.462;2023-06-19T12:52:24;31.30;99.90
14401;DHT22;7285;50.894;5.462;2023-06-19T12:54:51;31.30;94.90
14401;DHT22;7285;50.894;5.462;2023-06-19T12:57:19;31.00;92.20
14401;DHT22;7285;50.894;5.462;2023-06-19T12:59:46;31.40;99.90
14401;DHT22;7285;50.894;5.462;2023-06-19T13:02:13;31.30;96.90
14401;DHT22;7285;50.894;5.462;2023-06-19T13:04:40;31.20;99.90
14401;DHT22;7285;50.894;5.462;2023-06-19T13:07:07;31.30;99.50
14401;DHT22;7285;50.894;5.462;2023-06-19T13:09:34;31.20;98.60
14401;DHT22;7285;50.894;5.462;2023-06-19T13:12:01;31.10;94.20
14401;DHT22;7285;50.894;5.462;2023-06-19T13:14:29;31.20;91.00
14401;DHT22;7285;50.894;5.462;2023-06-19T13:16:57;31.60;93.40
14401;DHT22;7285;50.894;5.462;2023-06-19T13:19:25;31.00;83.30
14401;DHT22;7285;50.894;5.462;2023-06-19T13:21:52;31.50;88.40
14401;DHT22;7285;50.894;5.462;2023-06-19T13:24:19;31.00;70.00
14401;DHT22;7285;50.894;5.462;2023-06-19T13:26:46;31.50;99.40
14401;DHT22;7285;50.894;5.462;2023-06-19T13:29:13;31.70;80.60
14401;DHT22;7285;50.894;5.462;2023-06-19T13:31:41;31.50;87.90
14401;DHT22;7285;50.894;5.462;2023-06-19T13:34:08;31.00;80.00
14401;DHT22;7285;50.894;5.462;2023-06-19T13:36:35;31.30;91.50
14401;DHT22;7285;50.894;5.462;2023-06-19T13:39:02;31.80;78.10
14401;DHT22;7285;50.894;5.462;2023-06-19T13:41:30;32.00;70.20
14401;DHT22;7285;50.894;5.462;2023-06-19T13:43:58;31.90;63.60
14401;DHT22;7285;50.894;5.462;2023-06-19T13:46:25;32.00;50.00
14401;DHT22;7285;50.894;5.462;2023-06-19T13:48:53;31.60;57.70
14401;DHT22;7285;50.894;5.462;2023-06-19T13:51:21;31.50;64.00
14401;DHT22;7285;50.894;5.462;2023-06-19T13:53:49;31.50;55.10
14401;DHT22;7285;50.894;5.462;2023-06-19T13:56:16;31.40;55.20
14401;DHT22;7285;50.894;5.462;2023-06-19T13:58:43;31.30;50.40
14401;DHT22;7285;50.894;5.462;2023-06-19T14:01:10;31.50;22.10
14401;DHT22;7285;50.894;5.462;2023-06-19T14:03:38;31.60;24.70
14401;DHT22;7285;50.894;5.462;2023-06-19T14:06:06;31.70;24.10
14401;DHT22;7285;50.894;5.462;2023-06-19T14:08:33;31.80;28.60
14401;DHT22;7285;50.894;5.462;2023-06-19T14:11:01;31.80;32.50
14401;DHT22;7285;50.894;5.462;2023-06-19T14:13:28;32.00;55.80
14401;DHT22;7285;50.894;5.462;2023-06-19T14:15:55;31.60;27.10
14401;DHT22;7285;50.894;5.462;2023-06-19T14:18:22;31.10;16.00
14401;DHT22;7285;50.894;5.462;2023-06-19T14:20:48;31.30;25.90
14401;DHT22;7285;50.894;5.462;2023-06-19T14:23:17;31.30;14.20
14401;DHT22;7285;50.894;5.462;2023-06-19T14:25:44;31.10;15.50
14401;DHT22;7285;50.894;5.462;2023-06-19T14:28:11;31.40;17.50
14401;DHT22;7285;50.894;5.462;2023-06-19T14:30:39;31.50;19.80
14401;DHT22;7285;50.894;5.462;2023-06-19T14:33:06;31.50;14.60
14401;DHT22;7285;50.894;5.462;2023-06-19T14:35:40;31.80;23.10
14401;DHT22;7285;50.894;5.462;2023-06-19T14:38:07;31.80;17.60
14401;DHT22;7285;50.894;5.462;2023-06-19T14:40:35;31.90;14.40
14401;DHT22;7285;50.894;5.462;2023-06-19T14:43:02;31.90;12.30
14401;DHT22;7285;50.894;5.462;2023-06-19T14:45:29;32.20;16.20
14401;DHT22;7285;50.894;5.462;2023-06-19T14:47:56;32.20;17.50
14401;DHT22;7285;50.894;5.462;2023-06-19T14:50:23;32.10;11.20
14401;DHT22;7285;50.894;5.462;2023-06-19T14:52:50;32.20;9.40
14401;DHT22;7285;50.894;5.462;2023-06-19T14:55:17;32.40;10.40
14401;DHT22;7285;50.894;5.462;2023-06-19T14:57:45;32.20;1.00
14401;DHT22;7285;50.894;5.462;2023-06-19T15:00:13;32.50;33.20
14401;DHT22;7285;50.894;5.462;2023-06-19T15:02:40;32.00;15.10
14401;DHT22;7285;50.894;5.462;2023-06-19T15:05:08;31.70;14.30
14401;DHT22;7285;50.894;5.462;2023-06-19T15:07:35;32.00;14.40
14401;DHT22;7285;50.894;5.462;2023-06-19T15:10:02;31.80;11.20
14401;DHT22;7285;50.894;5.462;2023-06-19T15:12:30;31.90;14.40
14401;DHT22;7285;50.894;5.462;2023-06-19T15:15:01;32.00;1.00
14401;DHT22;7285;50.894;5.462;2023-06-19T15:17:28;32.20;16.20
14401;DHT22;7285;50.894;5.462;2023-06-19T15:19:55;32.20;9.20
14401;DHT22;7285;50.894;5.462;2023-06-19T15:22:22;32.00;15.90
14401;DHT22;7285;50.894;5.462;2023-06-19T15:24:49;32.00;1.00
14401;DHT22;7285;50.894;5.462;2023-06-19T15:27:16;32.10;1.00
14401;DHT22;7285;50.894;5.462;2023-06-19T15:29:43;32.30;5.90
14401;DHT22;7285;50.894;5.462;2023-06-19T15:32:11;32.40;1.00
14401;DHT22;7285;50.894;5.462;2023-06-19T15:34:38;32.20;1.00
14401;DHT22;7285;50.894;5.462;2023-06-19T15:37:06;32.40;1.00
14401;DHT22;7285;50.894;5.462;2023-06-19T15:39:33;32.10;1.00
14401;DHT22;7285;50.894;5.462;2023-06-19T15:42:00;32.30;1.00
14401;DHT22;7285;50.894;5.462;2023-06-19T15:44:27;32.90;1.00
14401;DHT22;7285;50.894;5.462;2023-06-19T15:46:54;32.80;1.00
14401;DHT22;7285;50.894;5.462;2023-06-19T15:49:22;33.00;1.00
14401;DHT22;7285;50.894;5.462;2023-06-19T15:51:49;33.00;1.00
14401;DHT22;7285;50.894;5.462;2023-06-19T15:54:16;32.70;1.00
14401;DHT22;7285;50.894;5.462;2023-06-19T15:56:43;33.00;1.00